sensor_id;sensor_type;location;lat;lon;timestamp;P1;durP1;ratioP1;P2;durP2;ratioP2
36377;SDS011;22402;42.746;23.606;2023-10-09T00:00:26;6.83;;;2.23;;
36377;SDS011;22402;42.746;23.606;2023-10-09T00:03:16;15.60;;;2.63;;
36377;SDS011;22402;42.746;23.606;2023-10-09T00:05:42;7.30;;;2.67;;
36377;SDS011;22402;42.746;23.606;2023-10-09T00:08:14;4.67;;;2.07;;
36377;SDS011;22402;42.746;23.606;2023-10-09T00:10:56;5.60;;;2.07;;
36377;SDS011;22402;42.746;23.606;2023-10-09T00:13:22;3.60;;;1.97;;
36377;SDS011;22402;42.746;23.606;2023-10-09T00:15:53;4.20;;;1.90;;
36377;SDS011;22402;42.746;23.606;2023-10-09T00:18:23;5.37;;;2.27;;
36377;SDS011;22402;42.746;23.606;2023-10-09T00:20:54;4.03;;;1.77;;
36377;SDS011;22402;42.746;23.606;2023-10-09T00:23:20;5.70;;;1.93;;
36377;SDS011;22402;42.746;23.606;2023-10-09T00:25:48;4.07;;;2.10;;
36377;SDS011;22402;42.746;23.606;2023-10-09T00:28:30;4.40;;;2.30;;
36377;SDS011;22402;42.746;23.606;2023-10-09T00:30:55;8.80;;;2.20;;
36377;SDS011;22402;42.746;23.606;2023-10-09T00:33:20;9.27;;;2.13;;
36377;SDS011;22402;42.746;23.606;2023-10-09T00:35:48;5.63;;;1.53;;
36377;SDS011;22402;42.746;23.606;2023-10-09T00:38:19;3.97;;;1.73;;
36377;SDS011;22402;42.746;23.606;2023-10-09T00:40:44;1.90;;;1.40;;
36377;SDS011;22402;42.746;23.606;2023-10-09T00:43:21;5.07;;;2.03;;
36377;SDS011;22402;42.746;23.606;2023-10-09T00:45:53;2.03;;;1.40;;
36377;SDS011;22402;42.746;23.606;2023-10-09T00:48:18;6.63;;;2.20;;
36377;SDS011;22402;42.746;23.606;2023-10-09T00:50:55;4.07;;;1.63;;
36377;SDS011;22402;42.746;23.606;2023-10-09T00:53:24;5.87;;;1.60;;
36377;SDS011;22402;42.746;23.606;2023-10-09T00:55:58;5.13;;;1.30;;
36377;SDS011;22402;42.746;23.606;2023-10-09T00:58:29;4.20;;;1.87;;
36377;SDS011;22402;42.746;23.606;2023-10-09T01:00:56;5.60;;;1.80;;
36377;SDS011;22402;42.746;23.606;2023-10-09T01:03:24;4.10;;;2.00;;
36377;SDS011;22402;42.746;23.606;2023-10-09T01:05:56;3.87;;;2.00;;
36377;SDS011;22402;42.746;23.606;2023-10-09T01:08:41;5.10;;;1.60;;
36377;SDS011;22402;42.746;23.606;2023-10-09T01:13:38;7.87;;;2.77;;
36377;SDS011;22402;42.746;23.606;2023-10-09T01:16:19;5.57;;;1.70;;
36377;SDS011;22402;42.746;23.606;2023-10-09T01:18:50;5.47;;;2.90;;
36377;SDS011;22402;42.746;23.606;2023-10-09T01:21:16;16.87;;;3.10;;
36377;SDS011;22402;42.746;23.606;2023-10-09T01:23:42;7.20;;;2.80;;
36377;SDS011;22402;42.746;23.606;2023-10-09T01:26:30;8.10;;;4.00;;
36377;SDS011;22402;42.746;23.606;2023-10-09T01:29:07;13.73;;;2.80;;
36377;SDS011;22402;42.746;23.606;2023-10-09T01:31:39;5.83;;;2.20;;
36377;SDS011;22402;42.746;23.606;2023-10-09T01:34:09;2.90;;;1.97;;
36377;SDS011;22402;42.746;23.606;2023-10-09T01:36:38;5.40;;;1.73;;
36377;SDS011;22402;42.746;23.606;2023-10-09T01:39:04;3.77;;;1.50;;
36377;SDS011;22402;42.746;23.606;2023-10-09T01:41:49;3.03;;;1.47;;
36377;SDS011;22402;42.746;23.606;2023-10-09T01:44:17;2.87;;;1.20;;
36377;SDS011;22402;42.746;23.606;2023-10-09T01:46:42;3.03;;;1.63;;
36377;SDS011;22402;42.746;23.606;2023-10-09T01:49:11;2.53;;;1.40;;
36377;SDS011;22402;42.746;23.606;2023-10-09T01:51:41;3.90;;;1.50;;
36377;SDS011;22402;42.746;23.606;2023-10-09T01:54:07;2.70;;;1.10;;
36377;SDS011;22402;42.746;23.606;2023-10-09T01:56:32;2.10;;;0.90;;
36377;SDS011;22402;42.746;23.606;2023-10-09T01:59:02;2.27;;;1.10;;
36377;SDS011;22402;42.746;23.606;2023-10-09T02:01:30;1.50;;;1.00;;
36377;SDS011;22402;42.746;23.606;2023-10-09T02:04:05;1.63;;;0.97;;
36377;SDS011;22402;42.746;23.606;2023-10-09T02:06:38;1.00;;;0.90;;
36377;SDS011;22402;42.746;23.606;2023-10-09T02:09:03;1.53;;;0.90;;
36377;SDS011;22402;42.746;23.606;2023-10-09T02:11:31;4.43;;;1.20;;
36377;SDS011;22402;42.746;23.606;2023-10-09T02:14:08;4.50;;;1.47;;
36377;SDS011;22402;42.746;23.606;2023-10-09T02:16:49;2.70;;;1.37;;
36377;SDS011;22402;42.746;23.606;2023-10-09T02:19:33;3.47;;;1.70;;
36377;SDS011;22402;42.746;23.606;2023-10-09T02:22:02;9.13;;;1.47;;
36377;SDS011;22402;42.746;23.606;2023-10-09T02:24:38;3.40;;;1.30;;
36377;SDS011;22402;42.746;23.606;2023-10-09T02:27:22;1.53;;;1.10;;
36377;SDS011;22402;42.746;23.606;2023-10-09T02:30:11;1.50;;;1.10;;
36377;SDS011;22402;42.746;23.606;2023-10-09T02:32:51;2.80;;;1.03;;
36377;SDS011;22402;42.746;23.606;2023-10-09T02:35:19;5.20;;;1.40;;
36377;SDS011;22402;42.746;23.606;2023-10-09T02:37:53;6.97;;;1.30;;
36377;SDS011;22402;42.746;23.606;2023-10-09T02:40:19;4.57;;;1.30;;
36377;SDS011;22402;42.746;23.606;2023-10-09T02:42:52;1.60;;;1.50;;
36377;SDS011;22402;42.746;23.606;2023-10-09T02:45:18;5.13;;;1.20;;
36377;SDS011;22402;42.746;23.606;2023-10-09T02:47:44;1.30;;;1.17;;
36377;SDS011;22402;42.746;23.606;2023-10-09T02:50:13;4.67;;;1.37;;
36377;SDS011;22402;42.746;23.606;2023-10-09T02:52:44;1.80;;;0.90;;
36377;SDS011;22402;42.746;23.606;2023-10-09T02:55:12;1.77;;;1.00;;
36377;SDS011;22402;42.746;23.606;2023-10-09T02:57:48;4.93;;;1.30;;
36377;SDS011;22402;42.746;23.606;2023-10-09T03:00:16;2.23;;;1.13;;
36377;SDS011;22402;42.746;23.606;2023-10-09T03:02:53;2.10;;;1.27;;
36377;SDS011;22402;42.746;23.606;2023-10-09T03:05:19;1.80;;;1.13;;
36377;SDS011;22402;42.746;23.606;2023-10-09T03:07:45;1.73;;;1.00;;
36377;SDS011;22402;42.746;23.606;2023-10-09T03:10:11;1.83;;;1.10;;
36377;SDS011;22402;42.746;23.606;2023-10-09T03:12:36;2.63;;;1.10;;
36377;SDS011;22402;42.746;23.606;2023-10-09T03:15:04;1.43;;;1.27;;
36377;SDS011;22402;42.746;23.606;2023-10-09T03:17:33;1.77;;;1.10;;
36377;SDS011;22402;42.746;23.606;2023-10-09T03:19:59;6.27;;;1.77;;
36377;SDS011;22402;42.746;23.606;2023-10-09T03:22:27;1.87;;;1.23;;
36377;SDS011;22402;42.746;23.606;2023-10-09T03:24:52;2.07;;;1.20;;
36377;SDS011;22402;42.746;23.606;2023-10-09T03:27:18;4.83;;;1.40;;
36377;SDS011;22402;42.746;23.606;2023-10-09T03:29:43;2.20;;;1.17;;
36377;SDS011;22402;42.746;23.606;2023-10-09T03:32:14;1.93;;;1.23;;
36377;SDS011;22402;42.746;23.606;2023-10-09T03:34:39;2.83;;;1.10;;
36377;SDS011;22402;42.746;23.606;2023-10-09T03:37:05;3.03;;;1.30;;
36377;SDS011;22402;42.746;23.606;2023-10-09T03:39:31;1.60;;;1.30;;
36377;SDS011;22402;42.746;23.606;2023-10-09T03:42:06;1.73;;;0.90;;
36377;SDS011;22402;42.746;23.606;2023-10-09T03:44:37;1.67;;;0.83;;
36377;SDS011;22402;42.746;23.606;2023-10-09T03:47:06;3.47;;;1.20;;
36377;SDS011;22402;42.746;23.606;2023-10-09T03:49:38;1.13;;;1.03;;
36377;SDS011;22402;42.746;23.606;2023-10-09T03:55:07;9.00;;;1.50;;
36377;SDS011;22402;42.746;23.606;2023-10-09T03:57:36;1.30;;;1.20;;
36377;SDS011;22402;42.746;23.606;2023-10-09T04:00:04;1.53;;;1.20;;
36377;SDS011;22402;42.746;23.606;2023-10-09T04:02:50;2.00;;;1.10;;
36377;SDS011;22402;42.746;23.606;2023-10-09T04:05:15;1.93;;;1.40;;
36377;SDS011;22402;42.746;23.606;2023-10-09T04:07:41;1.50;;;1.27;;
36377;SDS011;22402;42.746;23.606;2023-10-09T04:10:07;3.83;;;1.30;;
36377;SDS011;22402;42.746;23.606;2023-10-09T04:12:51;1.70;;;1.13;;
36377;SDS011;22402;42.746;23.606;2023-10-09T04:15:18;3.60;;;1.30;;
36377;SDS011;22402;42.746;23.606;2023-10-09T04:17:48;1.80;;;1.03;;
36377;SDS011;22402;42.746;23.606;2023-10-09T04:20:16;1.63;;;1.30;;
36377;SDS011;22402;42.746;23.606;2023-10-09T04:22:45;2.17;;;1.60;;
36377;SDS011;22402;42.746;23.606;2023-10-09T04:25:20;2.40;;;1.30;;
36377;SDS011;22402;42.746;23.606;2023-10-09T04:27:53;2.10;;;1.37;;
36377;SDS011;22402;42.746;23.606;2023-10-09T04:30:18;3.40;;;1.40;;
36377;SDS011;22402;42.746;23.606;2023-10-09T04:32:44;2.30;;;1.60;;
36377;SDS011;22402;42.746;23.606;2023-10-09T04:35:10;1.30;;;1.20;;
36377;SDS011;22402;42.746;23.606;2023-10-09T04:37:45;6.03;;;2.00;;
36377;SDS011;22402;42.746;23.606;2023-10-09T04:40:18;2.30;;;1.53;;
36377;SDS011;22402;42.746;23.606;2023-10-09T04:43:02;5.73;;;1.90;;
36377;SDS011;22402;42.746;23.606;2023-10-09T04:45:31;2.93;;;1.50;;
36377;SDS011;22402;42.746;23.606;2023-10-09T04:48:09;4.20;;;1.80;;
36377;SDS011;22402;42.746;23.606;2023-10-09T04:50:34;2.50;;;1.40;;
36377;SDS011;22402;42.746;23.606;2023-10-09T04:53:00;2.93;;;1.80;;
36377;SDS011;22402;42.746;23.606;2023-10-09T04:55:40;2.13;;;1.67;;
36377;SDS011;22402;42.746;23.606;2023-10-09T04:58:09;3.00;;;1.50;;
36377;SDS011;22402;42.746;23.606;2023-10-09T05:00:38;9.50;;;2.30;;
36377;SDS011;22402;42.746;23.606;2023-10-09T05:03:07;5.37;;;1.80;;
36377;SDS011;22402;42.746;23.606;2023-10-09T05:05:37;2.67;;;1.40;;
36377;SDS011;22402;42.746;23.606;2023-10-09T05:08:05;2.23;;;1.50;;
36377;SDS011;22402;42.746;23.606;2023-10-09T05:10:50;3.03;;;1.47;;
36377;SDS011;22402;42.746;23.606;2023-10-09T05:13:24;1.97;;;1.30;;
36377;SDS011;22402;42.746;23.606;2023-10-09T05:19:05;1.77;;;1.20;;
36377;SDS011;22402;42.746;23.606;2023-10-09T05:21:53;8.43;;;1.40;;
36377;SDS011;22402;42.746;23.606;2023-10-09T05:24:23;3.23;;;1.67;;
36377;SDS011;22402;42.746;23.606;2023-10-09T05:26:51;5.97;;;2.00;;
36377;SDS011;22402;42.746;23.606;2023-10-09T05:29:18;3.23;;;1.37;;
36377;SDS011;22402;42.746;23.606;2023-10-09T05:31:58;2.63;;;1.50;;
36377;SDS011;22402;42.746;23.606;2023-10-09T05:34:42;1.77;;;1.20;;
36377;SDS011;22402;42.746;23.606;2023-10-09T05:37:26;1.73;;;1.40;;
36377;SDS011;22402;42.746;23.606;2023-10-09T05:39:57;2.10;;;1.17;;
36377;SDS011;22402;42.746;23.606;2023-10-09T05:42:43;3.80;;;1.60;;
36377;SDS011;22402;42.746;23.606;2023-10-09T05:45:15;2.40;;;1.40;;
36377;SDS011;22402;42.746;23.606;2023-10-09T05:47:59;5.80;;;1.80;;
36377;SDS011;22402;42.746;23.606;2023-10-09T05:50:44;2.77;;;1.30;;
36377;SDS011;22402;42.746;23.606;2023-10-09T05:53:45;1.57;;;1.17;;
36377;SDS011;22402;42.746;23.606;2023-10-09T05:56:10;2.00;;;1.50;;
36377;SDS011;22402;42.746;23.606;2023-10-09T05:58:54;2.27;;;1.23;;
36377;SDS011;22402;42.746;23.606;2023-10-09T06:01:38;3.17;;;1.53;;
36377;SDS011;22402;42.746;23.606;2023-10-09T06:04:16;3.60;;;1.50;;
36377;SDS011;22402;42.746;23.606;2023-10-09T06:06:43;2.40;;;1.43;;
36377;SDS011;22402;42.746;23.606;2023-10-09T06:09:10;5.70;;;2.03;;
36377;SDS011;22402;42.746;23.606;2023-10-09T06:11:38;6.00;;;1.50;;
36377;SDS011;22402;42.746;23.606;2023-10-09T06:14:04;8.70;;;1.40;;
36377;SDS011;22402;42.746;23.606;2023-10-09T06:16:40;7.93;;;1.50;;
36377;SDS011;22402;42.746;23.606;2023-10-09T06:19:09;3.40;;;1.50;;
36377;SDS011;22402;42.746;23.606;2023-10-09T06:21:37;4.20;;;1.37;;
36377;SDS011;22402;42.746;23.606;2023-10-09T06:24:22;1.77;;;1.43;;
36377;SDS011;22402;42.746;23.606;2023-10-09T06:27:06;2.40;;;1.47;;
36377;SDS011;22402;42.746;23.606;2023-10-09T06:29:31;4.77;;;2.07;;
36377;SDS011;22402;42.746;23.606;2023-10-09T06:32:09;4.60;;;1.60;;
36377;SDS011;22402;42.746;23.606;2023-10-09T06:34:44;5.70;;;1.47;;
36377;SDS011;22402;42.746;23.606;2023-10-09T06:37:17;7.00;;;1.50;;
36377;SDS011;22402;42.746;23.606;2023-10-09T06:39:48;3.03;;;1.80;;
36377;SDS011;22402;42.746;23.606;2023-10-09T06:42:23;7.13;;;2.07;;
36377;SDS011;22402;42.746;23.606;2023-10-09T06:45:04;2.73;;;1.50;;
36377;SDS011;22402;42.746;23.606;2023-10-09T06:47:34;3.90;;;1.60;;
36377;SDS011;22402;42.746;23.606;2023-10-09T06:50:07;5.43;;;1.63;;
36377;SDS011;22402;42.746;23.606;2023-10-09T06:52:49;2.87;;;1.90;;
36377;SDS011;22402;42.746;23.606;2023-10-09T06:55:37;2.10;;;1.37;;
36377;SDS011;22402;42.746;23.606;2023-10-09T07:00:48;2.30;;;1.43;;
36377;SDS011;22402;42.746;23.606;2023-10-09T07:03:32;3.63;;;1.80;;
36377;SDS011;22402;42.746;23.606;2023-10-09T07:06:06;3.97;;;1.77;;
36377;SDS011;22402;42.746;23.606;2023-10-09T07:08:49;10.80;;;1.53;;
36377;SDS011;22402;42.746;23.606;2023-10-09T07:11:38;2.70;;;1.57;;
36377;SDS011;22402;42.746;23.606;2023-10-09T07:14:06;2.53;;;1.20;;
36377;SDS011;22402;42.746;23.606;2023-10-09T07:16:35;3.37;;;1.00;;
36377;SDS011;22402;42.746;23.606;2023-10-09T07:19:04;4.07;;;1.43;;
36377;SDS011;22402;42.746;23.606;2023-10-09T07:21:50;2.97;;;1.63;;
36377;SDS011;22402;42.746;23.606;2023-10-09T07:24:19;2.37;;;1.07;;
36377;SDS011;22402;42.746;23.606;2023-10-09T07:27:03;1.63;;;1.20;;
36377;SDS011;22402;42.746;23.606;2023-10-09T07:29:34;4.23;;;1.23;;
36377;SDS011;22402;42.746;23.606;2023-10-09T07:32:12;7.90;;;1.37;;
36377;SDS011;22402;42.746;23.606;2023-10-09T07:34:44;4.40;;;1.27;;
36377;SDS011;22402;42.746;23.606;2023-10-09T07:37:20;1.97;;;1.30;;
36377;SDS011;22402;42.746;23.606;2023-10-09T07:39:47;2.27;;;0.90;;
36377;SDS011;22402;42.746;23.606;2023-10-09T07:42:22;1.20;;;0.80;;
36377;SDS011;22402;42.746;23.606;2023-10-09T07:45:06;2.73;;;0.93;;
36377;SDS011;22402;42.746;23.606;2023-10-09T07:47:45;1.20;;;0.80;;
36377;SDS011;22402;42.746;23.606;2023-10-09T07:50:27;1.80;;;1.37;;
36377;SDS011;22402;42.746;23.606;2023-10-09T07:53:12;4.73;;;1.70;;
36377;SDS011;22402;42.746;23.606;2023-10-09T07:55:43;2.60;;;1.50;;
36377;SDS011;22402;42.746;23.606;2023-10-09T07:58:19;4.10;;;1.37;;
36377;SDS011;22402;42.746;23.606;2023-10-09T08:00:51;2.23;;;0.97;;
36377;SDS011;22402;42.746;23.606;2023-10-09T08:03:48;4.00;;;0.93;;
36377;SDS011;22402;42.746;23.606;2023-10-09T08:06:22;2.80;;;1.07;;
36377;SDS011;22402;42.746;23.606;2023-10-09T08:09:03;6.57;;;0.90;;
36377;SDS011;22402;42.746;23.606;2023-10-09T08:11:32;1.57;;;1.10;;
36377;SDS011;22402;42.746;23.606;2023-10-09T08:14:16;2.73;;;0.90;;
36377;SDS011;22402;42.746;23.606;2023-10-09T08:17:00;2.07;;;1.00;;
36377;SDS011;22402;42.746;23.606;2023-10-09T08:19:45;1.47;;;1.10;;
36377;SDS011;22402;42.746;23.606;2023-10-09T08:22:23;0.87;;;0.70;;
36377;SDS011;22402;42.746;23.606;2023-10-09T08:24:49;3.23;;;1.20;;
36377;SDS011;22402;42.746;23.606;2023-10-09T08:27:21;2.30;;;1.00;;
36377;SDS011;22402;42.746;23.606;2023-10-09T08:29:58;1.73;;;1.20;;
36377;SDS011;22402;42.746;23.606;2023-10-09T08:32:43;6.00;;;1.03;;
36377;SDS011;22402;42.746;23.606;2023-10-09T08:35:25;8.90;;;1.17;;
36377;SDS011;22402;42.746;23.606;2023-10-09T08:38:11;0.97;;;0.70;;
36377;SDS011;22402;42.746;23.606;2023-10-09T08:40:40;3.23;;;0.80;;
36377;SDS011;22402;42.746;23.606;2023-10-09T08:43:10;1.73;;;0.90;;
36377;SDS011;22402;42.746;23.606;2023-10-09T08:45:38;1.73;;;1.07;;
36377;SDS011;22402;42.746;23.606;2023-10-09T08:48:04;2.93;;;0.90;;
36377;SDS011;22402;42.746;23.606;2023-10-09T08:50:31;7.27;;;1.07;;
36377;SDS011;22402;42.746;23.606;2023-10-09T08:52:57;2.07;;;1.33;;
36377;SDS011;22402;42.746;23.606;2023-10-09T08:55:22;2.67;;;1.17;;
36377;SDS011;22402;42.746;23.606;2023-10-09T08:57:47;3.20;;;1.17;;
36377;SDS011;22402;42.746;23.606;2023-10-09T09:00:16;1.83;;;0.90;;
36377;SDS011;22402;42.746;23.606;2023-10-09T09:02:46;1.57;;;0.90;;
36377;SDS011;22402;42.746;23.606;2023-10-09T09:05:19;1.83;;;1.10;;
36377;SDS011;22402;42.746;23.606;2023-10-09T09:07:45;1.17;;;0.83;;
36377;SDS011;22402;42.746;23.606;2023-10-09T09:10:11;4.10;;;0.90;;
36377;SDS011;22402;42.746;23.606;2023-10-09T09:12:45;3.53;;;0.90;;
36377;SDS011;22402;42.746;23.606;2023-10-09T09:15:14;2.47;;;0.93;;
36377;SDS011;22402;42.746;23.606;2023-10-09T09:17:47;0.83;;;0.80;;
36377;SDS011;22402;42.746;23.606;2023-10-09T09:20:23;4.00;;;1.00;;
36377;SDS011;22402;42.746;23.606;2023-10-09T09:22:53;0.93;;;0.80;;
36377;SDS011;22402;42.746;23.606;2023-10-09T09:25:22;2.33;;;0.83;;
36377;SDS011;22402;42.746;23.606;2023-10-09T09:27:50;1.03;;;0.73;;
36377;SDS011;22402;42.746;23.606;2023-10-09T09:30:23;1.67;;;0.80;;
36377;SDS011;22402;42.746;23.606;2023-10-09T09:32:49;0.93;;;0.70;;
36377;SDS011;22402;42.746;23.606;2023-10-09T09:35:34;3.30;;;0.90;;
36377;SDS011;22402;42.746;23.606;2023-10-09T09:38:00;0.93;;;0.73;;
36377;SDS011;22402;42.746;23.606;2023-10-09T09:40:30;1.23;;;0.90;;
36377;SDS011;22402;42.746;23.606;2023-10-09T09:43:00;1.80;;;0.90;;
36377;SDS011;22402;42.746;23.606;2023-10-09T09:45:45;1.07;;;0.80;;
36377;SDS011;22402;42.746;23.606;2023-10-09T09:48:11;1.00;;;0.70;;
36377;SDS011;22402;42.746;23.606;2023-10-09T09:50:40;2.07;;;0.93;;
36377;SDS011;22402;42.746;23.606;2023-10-09T09:53:15;3.90;;;0.90;;
36377;SDS011;22402;42.746;23.606;2023-10-09T09:55:53;1.13;;;0.73;;
36377;SDS011;22402;42.746;23.606;2023-10-09T09:58:24;1.60;;;0.87;;
36377;SDS011;22402;42.746;23.606;2023-10-09T10:00:52;0.80;;;0.60;;
36377;SDS011;22402;42.746;23.606;2023-10-09T10:03:20;0.73;;;0.73;;
36377;SDS011;22402;42.746;23.606;2023-10-09T10:08:20;0.70;;;0.60;;
36377;SDS011;22402;42.746;23.606;2023-10-09T10:10:46;0.67;;;0.67;;
36377;SDS011;22402;42.746;23.606;2023-10-09T10:16:05;1.10;;;0.90;;
36377;SDS011;22402;42.746;23.606;2023-10-09T10:21:32;1.20;;;0.70;;
36377;SDS011;22402;42.746;23.606;2023-10-09T10:23:57;1.40;;;0.80;;
36377;SDS011;22402;42.746;23.606;2023-10-09T10:26:38;1.00;;;0.90;;
36377;SDS011;22402;42.746;23.606;2023-10-09T10:31:59;1.20;;;0.80;;
36377;SDS011;22402;42.746;23.606;2023-10-09T10:34:54;2.40;;;0.80;;
36377;SDS011;22402;42.746;23.606;2023-10-09T10:37:40;2.10;;;0.90;;
36377;SDS011;22402;42.746;23.606;2023-10-09T10:40:27;1.47;;;0.83;;
36377;SDS011;22402;42.746;23.606;2023-10-09T10:43:19;1.43;;;0.83;;
36377;SDS011;22402;42.746;23.606;2023-10-09T10:46:04;1.97;;;0.80;;
36377;SDS011;22402;42.746;23.606;2023-10-09T10:48:33;0.80;;;0.77;;
36377;SDS011;22402;42.746;23.606;2023-10-09T10:51:05;1.90;;;0.90;;
36377;SDS011;22402;42.746;23.606;2023-10-09T10:53:31;2.03;;;0.70;;
36377;SDS011;22402;42.746;23.606;2023-10-09T10:56:16;0.70;;;0.70;;
36377;SDS011;22402;42.746;23.606;2023-10-09T10:58:42;2.03;;;0.90;;
36377;SDS011;22402;42.746;23.606;2023-10-09T11:01:30;0.80;;;0.60;;
36377;SDS011;22402;42.746;23.606;2023-10-09T11:17:06;1.17;;;0.83;;
36377;SDS011;22402;42.746;23.606;2023-10-09T11:19:49;0.93;;;0.73;;
36377;SDS011;22402;42.746;23.606;2023-10-09T11:22:17;2.77;;;0.80;;
36377;SDS011;22402;42.746;23.606;2023-10-09T11:25:01;2.50;;;0.70;;
36377;SDS011;22402;42.746;23.606;2023-10-09T11:27:36;1.10;;;0.83;;
36377;SDS011;22402;42.746;23.606;2023-10-09T11:30:05;1.00;;;0.70;;
36377;SDS011;22402;42.746;23.606;2023-10-09T11:32:37;0.80;;;0.70;;
36377;SDS011;22402;42.746;23.606;2023-10-09T11:35:11;1.67;;;0.80;;
36377;SDS011;22402;42.746;23.606;2023-10-09T11:37:39;1.40;;;1.00;;
36377;SDS011;22402;42.746;23.606;2023-10-09T11:40:07;1.83;;;0.97;;
36377;SDS011;22402;42.746;23.606;2023-10-09T11:42:53;2.40;;;1.20;;
36377;SDS011;22402;42.746;23.606;2023-10-09T11:45:23;0.77;;;0.63;;
36377;SDS011;22402;42.746;23.606;2023-10-09T12:00:14;1.07;;;0.73;;
36377;SDS011;22402;42.746;23.606;2023-10-09T12:02:55;4.07;;;0.90;;
36377;SDS011;22402;42.746;23.606;2023-10-09T12:05:21;1.20;;;1.00;;
36377;SDS011;22402;42.746;23.606;2023-10-09T12:07:48;2.30;;;0.80;;
36377;SDS011;22402;42.746;23.606;2023-10-09T12:10:24;0.70;;;0.70;;
36377;SDS011;22402;42.746;23.606;2023-10-09T12:12:53;1.27;;;1.10;;
36377;SDS011;22402;42.746;23.606;2023-10-09T12:15:19;0.87;;;0.73;;
36377;SDS011;22402;42.746;23.606;2023-10-09T12:17:45;3.33;;;1.00;;
36377;SDS011;22402;42.746;23.606;2023-10-09T12:20:13;1.47;;;0.90;;
36377;SDS011;22402;42.746;23.606;2023-10-09T12:22:39;2.93;;;0.80;;
36377;SDS011;22402;42.746;23.606;2023-10-09T12:25:06;1.00;;;0.63;;
36377;SDS011;22402;42.746;23.606;2023-10-09T12:27:34;1.97;;;1.00;;
36377;SDS011;22402;42.746;23.606;2023-10-09T12:29:59;1.23;;;1.00;;
36377;SDS011;22402;42.746;23.606;2023-10-09T12:32:24;0.80;;;0.60;;
36377;SDS011;22402;42.746;23.606;2023-10-09T12:34:50;0.80;;;0.70;;
36377;SDS011;22402;42.746;23.606;2023-10-09T12:37:15;1.27;;;0.80;;
36377;SDS011;22402;42.746;23.606;2023-10-09T12:39:42;1.40;;;0.73;;
36377;SDS011;22402;42.746;23.606;2023-10-09T12:42:08;2.97;;;0.90;;
36377;SDS011;22402;42.746;23.606;2023-10-09T12:44:33;0.70;;;0.70;;
36377;SDS011;22402;42.746;23.606;2023-10-09T12:47:09;3.43;;;1.00;;
36377;SDS011;22402;42.746;23.606;2023-10-09T12:49:38;1.93;;;0.87;;
36377;SDS011;22402;42.746;23.606;2023-10-09T12:52:06;0.77;;;0.67;;
36377;SDS011;22402;42.746;23.606;2023-10-09T12:54:41;1.23;;;0.80;;
36377;SDS011;22402;42.746;23.606;2023-10-09T12:57:09;3.10;;;0.90;;
36377;SDS011;22402;42.746;23.606;2023-10-09T12:59:39;1.50;;;0.90;;
36377;SDS011;22402;42.746;23.606;2023-10-09T13:02:05;2.43;;;1.30;;
36377;SDS011;22402;42.746;23.606;2023-10-09T13:04:31;1.43;;;0.83;;
36377;SDS011;22402;42.746;23.606;2023-10-09T13:06:57;1.37;;;0.70;;
36377;SDS011;22402;42.746;23.606;2023-10-09T13:09:27;1.37;;;0.80;;
36377;SDS011;22402;42.746;23.606;2023-10-09T13:12:08;4.50;;;1.00;;
36377;SDS011;22402;42.746;23.606;2023-10-09T13:14:33;1.87;;;0.70;;
36377;SDS011;22402;42.746;23.606;2023-10-09T13:17:00;0.93;;;0.80;;
36377;SDS011;22402;42.746;23.606;2023-10-09T13:19:33;1.20;;;0.70;;
36377;SDS011;22402;42.746;23.606;2023-10-09T13:21:58;7.50;;;0.93;;
36377;SDS011;22402;42.746;23.606;2023-10-09T13:24:28;1.73;;;0.80;;
36377;SDS011;22402;42.746;23.606;2023-10-09T13:26:55;2.60;;;0.90;;
36377;SDS011;22402;42.746;23.606;2023-10-09T13:29:23;1.67;;;1.20;;
36377;SDS011;22402;42.746;23.606;2023-10-09T13:31:48;1.03;;;0.83;;
36377;SDS011;22402;42.746;23.606;2023-10-09T13:34:16;2.10;;;0.80;;
36377;SDS011;22402;42.746;23.606;2023-10-09T13:36:41;2.83;;;1.07;;
36377;SDS011;22402;42.746;23.606;2023-10-09T13:39:18;1.00;;;0.80;;
36377;SDS011;22402;42.746;23.606;2023-10-09T13:41:49;4.83;;;1.30;;
36377;SDS011;22402;42.746;23.606;2023-10-09T13:44:15;3.70;;;1.10;;
36377;SDS011;22402;42.746;23.606;2023-10-09T13:46:40;1.90;;;1.30;;
36377;SDS011;22402;42.746;23.606;2023-10-09T13:49:09;2.60;;;1.10;;
36377;SDS011;22402;42.746;23.606;2023-10-09T13:51:43;3.00;;;0.93;;
36377;SDS011;22402;42.746;23.606;2023-10-09T13:54:10;1.40;;;0.83;;
36377;SDS011;22402;42.746;23.606;2023-10-09T13:56:35;1.50;;;1.00;;
36377;SDS011;22402;42.746;23.606;2023-10-09T13:59:04;2.30;;;1.10;;
36377;SDS011;22402;42.746;23.606;2023-10-09T14:01:35;1.93;;;1.20;;
36377;SDS011;22402;42.746;23.606;2023-10-09T14:04:01;2.50;;;1.03;;
36377;SDS011;22402;42.746;23.606;2023-10-09T14:06:27;2.67;;;1.30;;
36377;SDS011;22402;42.746;23.606;2023-10-09T14:09:05;2.87;;;0.93;;
36377;SDS011;22402;42.746;23.606;2023-10-09T14:11:33;1.40;;;1.00;;
36377;SDS011;22402;42.746;23.606;2023-10-09T14:14:03;3.33;;;0.93;;
36377;SDS011;22402;42.746;23.606;2023-10-09T14:16:28;2.70;;;1.20;;
36377;SDS011;22402;42.746;23.606;2023-10-09T14:18:54;1.57;;;1.40;;
36377;SDS011;22402;42.746;23.606;2023-10-09T14:21:22;1.43;;;1.10;;
36377;SDS011;22402;42.746;23.606;2023-10-09T14:23:50;1.57;;;1.03;;
36377;SDS011;22402;42.746;23.606;2023-10-09T14:26:15;2.10;;;1.23;;
36377;SDS011;22402;42.746;23.606;2023-10-09T14:28:43;2.67;;;1.47;;
36377;SDS011;22402;42.746;23.606;2023-10-09T14:43:14;3.83;;;1.20;;
36377;SDS011;22402;42.746;23.606;2023-10-09T14:45:47;4.13;;;1.90;;
36377;SDS011;22402;42.746;23.606;2023-10-09T14:48:20;6.07;;;1.80;;
36377;SDS011;22402;42.746;23.606;2023-10-09T14:50:51;4.10;;;1.70;;
36377;SDS011;22402;42.746;23.606;2023-10-09T14:53:22;3.10;;;1.87;;
36377;SDS011;22402;42.746;23.606;2023-10-09T14:55:55;3.27;;;2.20;;
36377;SDS011;22402;42.746;23.606;2023-10-09T14:58:20;4.27;;;1.83;;
36377;SDS011;22402;42.746;23.606;2023-10-09T15:00:45;5.43;;;1.67;;
36377;SDS011;22402;42.746;23.606;2023-10-09T15:03:13;2.07;;;1.60;;
36377;SDS011;22402;42.746;23.606;2023-10-09T15:05:40;9.23;;;2.53;;
36377;SDS011;22402;42.746;23.606;2023-10-09T15:08:07;6.43;;;1.97;;
36377;SDS011;22402;42.746;23.606;2023-10-09T15:10:35;4.93;;;1.97;;
36377;SDS011;22402;42.746;23.606;2023-10-09T15:13:03;7.73;;;2.10;;
36377;SDS011;22402;42.746;23.606;2023-10-09T15:15:29;5.60;;;2.20;;
36377;SDS011;22402;42.746;23.606;2023-10-09T15:17:56;8.13;;;2.77;;
36377;SDS011;22402;42.746;23.606;2023-10-09T15:20:21;10.77;;;2.87;;
36377;SDS011;22402;42.746;23.606;2023-10-09T15:22:46;7.33;;;2.70;;
36377;SDS011;22402;42.746;23.606;2023-10-09T15:25:12;7.30;;;2.80;;
36377;SDS011;22402;42.746;23.606;2023-10-09T15:27:42;3.70;;;2.33;;
36377;SDS011;22402;42.746;23.606;2023-10-09T15:30:08;5.20;;;2.47;;
36377;SDS011;22402;42.746;23.606;2023-10-09T15:32:38;5.80;;;2.30;;
36377;SDS011;22402;42.746;23.606;2023-10-09T15:35:04;6.97;;;2.93;;
36377;SDS011;22402;42.746;23.606;2023-10-09T15:37:31;3.50;;;2.40;;
36377;SDS011;22402;42.746;23.606;2023-10-09T15:39:56;4.70;;;2.50;;
36377;SDS011;22402;42.746;23.606;2023-10-09T15:42:22;8.00;;;2.30;;
36377;SDS011;22402;42.746;23.606;2023-10-09T15:44:48;6.40;;;2.57;;
36377;SDS011;22402;42.746;23.606;2023-10-09T15:47:19;5.40;;;3.17;;
36377;SDS011;22402;42.746;23.606;2023-10-09T15:49:46;3.30;;;2.63;;
36377;SDS011;22402;42.746;23.606;2023-10-09T15:52:12;5.40;;;2.30;;
36377;SDS011;22402;42.746;23.606;2023-10-09T15:54:41;4.87;;;3.00;;
36377;SDS011;22402;42.746;23.606;2023-10-09T15:57:08;5.60;;;2.70;;
36377;SDS011;22402;42.746;23.606;2023-10-09T15:59:34;3.00;;;2.30;;